sensor_id;sensor_type;location;lat;lon;timestamp;temperature;humidity
67093;SHT31;54011;50.772;7.730;2023-05-07T00:02:03;19.08;66.55
67093;SHT31;54011;50.772;7.730;2023-05-07T00:04:29;19.21;66.24
67093;SHT31;54011;50.772;7.730;2023-05-07T00:07:01;19.13;66.43
67093;SHT31;54011;50.772;7.730;2023-05-07T00:09:28;19.30;65.94
67093;SHT31;54011;50.772;7.730;2023-05-07T00:11:54;19.14;66.03
67093;SHT31;54011;50.772;7.730;2023-05-07T00:14:20;19.14;66.31
67093;SHT31;54011;50.772;7.730;2023-05-07T00:16:46;19.07;66.72
67093;SHT31;54011;50.772;7.730;2023-05-07T00:19:12;19.18;66.61
67093;SHT31;54011;50.772;7.730;2023-05-07T00:21:38;19.30;66.21
67093;SHT31;54011;50.772;7.730;2023-05-07T00:24:03;19.14;66.75
67093;SHT31;54011;50.772;7.730;2023-05-07T00:26:29;19.03;66.99
67093;SHT31;54011;50.772;7.730;2023-05-07T00:28:55;19.06;67.18
67093;SHT31;54011;50.772;7.730;2023-05-07T00:31:21;19.06;67.14
67093;SHT31;54011;50.772;7.730;2023-05-07T00:33:46;19.11;67.12
67093;SHT31;54011;50.772;7.730;2023-05-07T00:36:12;18.94;67.46
67093;SHT31;54011;50.772;7.730;2023-05-07T00:38:37;18.94;67.39
67093;SHT31;54011;50.772;7.730;2023-05-07T00:41:03;19.00;67.35
67093;SHT31;54011;50.772;7.730;2023-05-07T00:43:28;19.02;67.28
67093;SHT31;54011;50.772;7.730;2023-05-07T00:45:55;18.94;67.36
67093;SHT31;54011;50.772;7.730;2023-05-07T00:48:20;18.93;67.46
67093;SHT31;54011;50.772;7.730;2023-05-07T00:50:46;18.69;68.07
67093;SHT31;54011;50.772;7.730;2023-05-07T00:53:12;18.59;68.59
67093;SHT31;54011;50.772;7.730;2023-05-07T00:55:38;18.67;68.27
67093;SHT31;54011;50.772;7.730;2023-05-07T00:58:04;18.38;69.05
67093;SHT31;54011;50.772;7.730;2023-05-07T01:00:31;18.26;69.58
67093;SHT31;54011;50.772;7.730;2023-05-07T01:02:57;18.67;68.42
67093;SHT31;54011;50.772;7.730;2023-05-07T01:05:24;18.28;69.28
67093;SHT31;54011;50.772;7.730;2023-05-07T01:07:52;18.60;68.44
67093;SHT31;54011;50.772;7.730;2023-05-07T01:10:19;18.66;68.37
67093;SHT31;54011;50.772;7.730;2023-05-07T01:12:47;18.60;68.70
67093;SHT31;54011;50.772;7.730;2023-05-07T01:15:13;18.46;68.91
67093;SHT31;54011;50.772;7.730;2023-05-07T01:17:40;18.34;69.26
67093;SHT31;54011;50.772;7.730;2023-05-07T01:20:12;18.39;69.31
67093;SHT31;54011;50.772;7.730;2023-05-07T01:22:40;18.72;68.21
67093;SHT31;54011;50.772;7.730;2023-05-07T01:25:07;18.76;68.07
67093;SHT31;54011;50.772;7.730;2023-05-07T01:27:34;18.62;68.32
67093;SHT31;54011;50.772;7.730;2023-05-07T01:30:01;18.55;68.39
67093;SHT31;54011;50.772;7.730;2023-05-07T01:32:41;18.22;69.10
67093;SHT31;54011;50.772;7.730;2023-05-07T01:35:11;18.01;69.78
67093;SHT31;54011;50.772;7.730;2023-05-07T01:37:38;18.11;69.43
67093;SHT31;54011;50.772;7.730;2023-05-07T01:40:05;18.36;68.85
67093;SHT31;54011;50.772;7.730;2023-05-07T01:42:32;18.01;69.30
67093;SHT31;54011;50.772;7.730;2023-05-07T01:44:59;18.00;69.78
67093;SHT31;54011;50.772;7.730;2023-05-07T01:47:25;18.12;69.61
67093;SHT31;54011;50.772;7.730;2023-05-07T01:49:51;18.36;68.99
67093;SHT31;54011;50.772;7.730;2023-05-07T01:52:17;18.28;68.90
67093;SHT31;54011;50.772;7.730;2023-05-07T01:54:42;17.75;70.22
67093;SHT31;54011;50.772;7.730;2023-05-07T01:57:08;17.70;70.18
67093;SHT31;54011;50.772;7.730;2023-05-07T01:59:34;17.78;70.25
67093;SHT31;54011;50.772;7.730;2023-05-07T02:01:59;17.54;71.00
67093;SHT31;54011;50.772;7.730;2023-05-07T02:04:26;17.87;70.12
67093;SHT31;54011;50.772;7.730;2023-05-07T02:06:52;17.71;70.33
67093;SHT31;54011;50.772;7.730;2023-05-07T02:09:19;17.78;70.17
67093;SHT31;54011;50.772;7.730;2023-05-07T02:11:47;17.69;70.43
67093;SHT31;54011;50.772;7.730;2023-05-07T02:14:13;17.83;70.06
67093;SHT31;54011;50.772;7.730;2023-05-07T02:16:38;17.94;69.99
67093;SHT31;54011;50.772;7.730;2023-05-07T02:19:04;17.88;70.10
67093;SHT31;54011;50.772;7.730;2023-05-07T02:21:30;17.85;70.26
67093;SHT31;54011;50.772;7.730;2023-05-07T02:23:56;17.97;70.09
67093;SHT31;54011;50.772;7.730;2023-05-07T02:26:21;18.15;69.50
67093;SHT31;54011;50.772;7.730;2023-05-07T02:28:47;18.24;69.29
67093;SHT31;54011;50.772;7.730;2023-05-07T02:31:13;18.12;69.61
67093;SHT31;54011;50.772;7.730;2023-05-07T02:33:39;18.36;69.25
67093;SHT31;54011;50.772;7.730;2023-05-07T02:36:11;18.45;69.19
67093;SHT31;54011;50.772;7.730;2023-05-07T02:38:50;18.42;69.01
67093;SHT31;54011;50.772;7.730;2023-05-07T02:41:15;18.48;68.88
67093;SHT31;54011;50.772;7.730;2023-05-07T02:43:41;18.32;69.54
67093;SHT31;54011;50.772;7.730;2023-05-07T02:46:08;18.22;69.21
67093;SHT31;54011;50.772;7.730;2023-05-07T02:48:37;18.08;69.62
67093;SHT31;54011;50.772;7.730;2023-05-07T02:51:03;17.93;70.05
67093;SHT31;54011;50.772;7.730;2023-05-07T02:53:30;17.93;69.80
67093;SHT31;54011;50.772;7.730;2023-05-07T02:55:57;17.97;70.03
67093;SHT31;54011;50.772;7.730;2023-05-07T02:58:23;17.69;70.96
67093;SHT31;54011;50.772;7.730;2023-05-07T03:00:49;18.09;69.61
67093;SHT31;54011;50.772;7.730;2023-05-07T03:03:29;18.00;69.91
67093;SHT31;54011;50.772;7.730;2023-05-07T03:05:55;17.83;70.37
67093;SHT31;54011;50.772;7.730;2023-05-07T03:08:21;18.14;69.50
67093;SHT31;54011;50.772;7.730;2023-05-07T03:10:47;17.98;70.10
67093;SHT31;54011;50.772;7.730;2023-05-07T03:13:12;18.12;69.57
67093;SHT31;54011;50.772;7.730;2023-05-07T03:15:38;17.97;69.84
67093;SHT31;54011;50.772;7.730;2023-05-07T03:18:04;18.14;69.22
67093;SHT31;54011;50.772;7.730;2023-05-07T03:20:29;18.04;69.68
67093;SHT31;54011;50.772;7.730;2023-05-07T03:22:56;17.81;70.63
67093;SHT31;54011;50.772;7.730;2023-05-07T03:25:21;17.84;70.35
67093;SHT31;54011;50.772;7.730;2023-05-07T03:27:47;17.90;70.21
67093;SHT31;54011;50.772;7.730;2023-05-07T03:30:12;17.73;70.72
67093;SHT31;54011;50.772;7.730;2023-05-07T03:32:38;17.78;70.58
67093;SHT31;54011;50.772;7.730;2023-05-07T03:35:07;17.71;70.69
67093;SHT31;54011;50.772;7.730;2023-05-07T03:37:33;18.00;69.80
67093;SHT31;54011;50.772;7.730;2023-05-07T03:39:58;17.88;70.08
67093;SHT31;54011;50.772;7.730;2023-05-07T03:42:24;17.80;70.46
67093;SHT31;54011;50.772;7.730;2023-05-07T03:44:51;18.11;69.34
67093;SHT31;54011;50.772;7.730;2023-05-07T03:47:18;18.18;69.01
67093;SHT31;54011;50.772;7.730;2023-05-07T03:49:47;18.19;68.61
67093;SHT31;54011;50.772;7.730;2023-05-07T03:52:14;17.98;69.05
67093;SHT31;54011;50.772;7.730;2023-05-07T03:54:40;17.80;69.69
67093;SHT31;54011;50.772;7.730;2023-05-07T03:57:06;17.57;70.18
67093;SHT31;54011;50.772;7.730;2023-05-07T03:59:32;17.60;70.36
67093;SHT31;54011;50.772;7.730;2023-05-07T04:01:58;17.33;71.06
67093;SHT31;54011;50.772;7.730;2023-05-07T04:04:26;17.30;71.60
67093;SHT31;54011;50.772;7.730;2023-05-07T04:06:51;17.60;70.82
67093;SHT31;54011;50.772;7.730;2023-05-07T04:09:17;17.62;70.77
67093;SHT31;54011;50.772;7.730;2023-05-07T04:11:45;17.69;70.58
67093;SHT31;54011;50.772;7.730;2023-05-07T04:14:10;17.63;71.00
67093;SHT31;54011;50.772;7.730;2023-05-07T04:16:36;17.47;70.58
67093;SHT31;54011;50.772;7.730;2023-05-07T04:19:02;17.43;70.37
67093;SHT31;54011;50.772;7.730;2023-05-07T04:21:28;17.56;70.30
67093;SHT31;54011;50.772;7.730;2023-05-07T04:23:55;17.62;70.07
67093;SHT31;54011;50.772;7.730;2023-05-07T04:26:21;17.67;70.01
67093;SHT31;54011;50.772;7.730;2023-05-07T04:28:47;17.49;70.83
67093;SHT31;54011;50.772;7.730;2023-05-07T04:31:14;17.59;70.42
67093;SHT31;54011;50.772;7.730;2023-05-07T04:33:40;17.51;71.00
67093;SHT31;54011;50.772;7.730;2023-05-07T04:36:09;17.62;70.70
67093;SHT31;54011;50.772;7.730;2023-05-07T04:38:41;17.51;71.17
67093;SHT31;54011;50.772;7.730;2023-05-07T04:41:08;17.70;70.53
67093;SHT31;54011;50.772;7.730;2023-05-07T04:43:38;17.71;70.70
67093;SHT31;54011;50.772;7.730;2023-05-07T04:46:03;17.78;70.85
67093;SHT31;54011;50.772;7.730;2023-05-07T04:48:30;18.09;69.75
67093;SHT31;54011;50.772;7.730;2023-05-07T04:50:57;18.25;69.37
67093;SHT31;54011;50.772;7.730;2023-05-07T04:53:22;18.31;69.29
67093;SHT31;54011;50.772;7.730;2023-05-07T04:55:55;18.34;69.11
67093;SHT31;54011;50.772;7.730;2023-05-07T04:58:21;18.18;69.14
67093;SHT31;54011;50.772;7.730;2023-05-07T05:00:46;17.81;69.93
67093;SHT31;54011;50.772;7.730;2023-05-07T05:03:12;18.14;69.27
67093;SHT31;54011;50.772;7.730;2023-05-07T05:05:38;18.05;69.76
67093;SHT31;54011;50.772;7.730;2023-05-07T05:08:04;18.25;69.18
67093;SHT31;54011;50.772;7.730;2023-05-07T05:10:30;18.24;69.61
67093;SHT31;54011;50.772;7.730;2023-05-07T05:12:56;17.90;69.99
67093;SHT31;54011;50.772;7.730;2023-05-07T05:15:23;17.93;70.12
67093;SHT31;54011;50.772;7.730;2023-05-07T05:17:48;18.16;69.73
67093;SHT31;54011;50.772;7.730;2023-05-07T05:20:14;18.49;69.13
67093;SHT31;54011;50.772;7.730;2023-05-07T05:22:41;18.41;69.83
67093;SHT31;54011;50.772;7.730;2023-05-07T05:25:07;18.48;69.54
67093;SHT31;54011;50.772;7.730;2023-05-07T05:27:34;18.82;68.72
67093;SHT31;54011;50.772;7.730;2023-05-07T05:30:01;18.83;68.37
67093;SHT31;54011;50.772;7.730;2023-05-07T05:32:27;18.73;68.66
67093;SHT31;54011;50.772;7.730;2023-05-07T05:34:56;18.99;68.74
67093;SHT31;54011;50.772;7.730;2023-05-07T05:37:21;19.17;67.88
67093;SHT31;54011;50.772;7.730;2023-05-07T05:39:48;18.79;69.12
67093;SHT31;54011;50.772;7.730;2023-05-07T05:42:15;18.74;68.76
67093;SHT31;54011;50.772;7.730;2023-05-07T05:44:40;18.97;68.28
67093;SHT31;54011;50.772;7.730;2023-05-07T05:47:07;19.04;68.45
67093;SHT31;54011;50.772;7.730;2023-05-07T05:49:33;19.25;67.19
67093;SHT31;54011;50.772;7.730;2023-05-07T05:51:59;19.15;67.14
67093;SHT31;54011;50.772;7.730;2023-05-07T05:54:26;19.39;67.02
67093;SHT31;54011;50.772;7.730;2023-05-07T05:56:54;19.28;67.14
67093;SHT31;54011;50.772;7.730;2023-05-07T05:59:20;19.58;66.76
67093;SHT31;54011;50.772;7.730;2023-05-07T06:01:46;19.52;67.12
67093;SHT31;54011;50.772;7.730;2023-05-07T06:04:12;19.52;66.86
67093;SHT31;54011;50.772;7.730;2023-05-07T06:06:38;19.89;66.04
67093;SHT31;54011;50.772;7.730;2023-05-07T06:09:04;19.90;66.38
67093;SHT31;54011;50.772;7.730;2023-05-07T06:11:36;20.12;66.03
67093;SHT31;54011;50.772;7.730;2023-05-07T06:14:01;20.13;65.35
67093;SHT31;54011;50.772;7.730;2023-05-07T06:16:28;19.76;66.40
67093;SHT31;54011;50.772;7.730;2023-05-07T06:18:54;19.85;66.70
67093;SHT31;54011;50.772;7.730;2023-05-07T06:21:20;19.61;66.63
67093;SHT31;54011;50.772;7.730;2023-05-07T06:23:47;19.71;66.52
67093;SHT31;54011;50.772;7.730;2023-05-07T06:26:13;19.78;66.19
67093;SHT31;54011;50.772;7.730;2023-05-07T06:28:41;20.60;64.64
67093;SHT31;54011;50.772;7.730;2023-05-07T06:31:17;20.91;63.66
67093;SHT31;54011;50.772;7.730;2023-05-07T06:33:51;20.27;64.78
67093;SHT31;54011;50.772;7.730;2023-05-07T06:36:17;20.45;64.06
67093;SHT31;54011;50.772;7.730;2023-05-07T06:38:43;20.78;64.45
67093;SHT31;54011;50.772;7.730;2023-05-07T06:41:09;20.65;63.88
67093;SHT31;54011;50.772;7.730;2023-05-07T06:43:37;21.26;62.55
67093;SHT31;54011;50.772;7.730;2023-05-07T06:46:21;20.99;63.57
67093;SHT31;54011;50.772;7.730;2023-05-07T06:48:47;21.59;62.15
67093;SHT31;54011;50.772;7.730;2023-05-07T06:51:13;21.98;60.89
67093;SHT31;54011;50.772;7.730;2023-05-07T06:53:39;21.12;62.60
67093;SHT31;54011;50.772;7.730;2023-05-07T06:56:05;21.39;62.56
67093;SHT31;54011;50.772;7.730;2023-05-07T06:58:31;22.07;60.06
67093;SHT31;54011;50.772;7.730;2023-05-07T07:00:57;22.31;60.20
67093;SHT31;54011;50.772;7.730;2023-05-07T07:03:23;21.83;61.10
67093;SHT31;54011;50.772;7.730;2023-05-07T07:05:52;21.13;62.67
67093;SHT31;54011;50.772;7.730;2023-05-07T07:08:18;21.41;62.06
67093;SHT31;54011;50.772;7.730;2023-05-07T07:10:47;21.22;62.50
67093;SHT31;54011;50.772;7.730;2023-05-07T07:13:12;21.93;61.48
67093;SHT31;54011;50.772;7.730;2023-05-07T07:15:39;22.17;60.50
67093;SHT31;54011;50.772;7.730;2023-05-07T07:18:05;22.35;60.32
67093;SHT31;54011;50.772;7.730;2023-05-07T07:20:31;22.66;58.97
67093;SHT31;54011;50.772;7.730;2023-05-07T07:22:57;21.86;60.82
67093;SHT31;54011;50.772;7.730;2023-05-07T07:25:23;22.34;60.21
67093;SHT31;54011;50.772;7.730;2023-05-07T07:27:49;22.63;60.56
67093;SHT31;54011;50.772;7.730;2023-05-07T07:30:15;23.07;58.31
67093;SHT31;54011;50.772;7.730;2023-05-07T07:32:45;22.49;60.12
67093;SHT31;54011;50.772;7.730;2023-05-07T07:35:10;22.82;59.04
67093;SHT31;54011;50.772;7.730;2023-05-07T07:37:37;23.23;57.85
67093;SHT31;54011;50.772;7.730;2023-05-07T07:40:03;23.28;57.43
67093;SHT31;54011;50.772;7.730;2023-05-07T07:42:29;23.60;58.15
67093;SHT31;54011;50.772;7.730;2023-05-07T07:44:55;23.06;58.21
67093;SHT31;54011;50.772;7.730;2023-05-07T07:47:24;23.75;56.22
67093;SHT31;54011;50.772;7.730;2023-05-07T07:49:51;23.21;57.72
67093;SHT31;54011;50.772;7.730;2023-05-07T07:52:18;23.20;56.88
67093;SHT31;54011;50.772;7.730;2023-05-07T07:54:44;23.51;56.96
67093;SHT31;54011;50.772;7.730;2023-05-07T07:57:10;23.31;58.03
67093;SHT31;54011;50.772;7.730;2023-05-07T07:59:36;24.06;56.13
67093;SHT31;54011;50.772;7.730;2023-05-07T08:02:02;23.70;56.79
67093;SHT31;54011;50.772;7.730;2023-05-07T08:04:29;23.50;57.57
67093;SHT31;54011;50.772;7.730;2023-05-07T08:06:57;23.61;57.19
67093;SHT31;54011;50.772;7.730;2023-05-07T08:09:24;24.53;55.52
67093;SHT31;54011;50.772;7.730;2023-05-07T08:11:51;23.98;55.41
67093;SHT31;54011;50.772;7.730;2023-05-07T08:14:17;25.12;54.18
67093;SHT31;54011;50.772;7.730;2023-05-07T08:16:45;24.67;54.07
67093;SHT31;54011;50.772;7.730;2023-05-07T08:19:11;24.77;53.99
67093;SHT31;54011;50.772;7.730;2023-05-07T08:21:40;24.61;54.60
67093;SHT31;54011;50.772;7.730;2023-05-07T08:24:07;24.83;54.22
67093;SHT31;54011;50.772;7.730;2023-05-07T08:26:32;25.61;52.59
67093;SHT31;54011;50.772;7.730;2023-05-07T08:28:58;26.10;51.99
67093;SHT31;54011;50.772;7.730;2023-05-07T08:31:24;25.12;52.63
67093;SHT31;54011;50.772;7.730;2023-05-07T08:33:50;26.04;51.55
67093;SHT31;54011;50.772;7.730;2023-05-07T08:36:16;26.03;51.55
67093;SHT31;54011;50.772;7.730;2023-05-07T08:38:41;25.32;52.52
67093;SHT31;54011;50.772;7.730;2023-05-07T08:41:10;25.41;51.72
67093;SHT31;54011;50.772;7.730;2023-05-07T08:43:37;25.04;53.19
67093;SHT31;54011;50.772;7.730;2023-05-07T08:46:04;25.90;52.36
67093;SHT31;54011;50.772;7.730;2023-05-07T08:48:35;26.06;50.80
67093;SHT31;54011;50.772;7.730;2023-05-07T08:51:12;26.69;50.32
67093;SHT31;54011;50.772;7.730;2023-05-07T08:53:41;26.48;50.23
67093;SHT31;54011;50.772;7.730;2023-05-07T08:56:11;25.52;51.26
67093;SHT31;54011;50.772;7.730;2023-05-07T08:58:37;25.11;52.14
67093;SHT31;54011;50.772;7.730;2023-05-07T09:01:07;25.85;51.09
67093;SHT31;54011;50.772;7.730;2023-05-07T09:03:33;26.61;50.07
67093;SHT31;54011;50.772;7.730;2023-05-07T09:05:59;26.44;49.71
67093;SHT31;54011;50.772;7.730;2023-05-07T09:08:27;27.45;47.42
67093;SHT31;54011;50.772;7.730;2023-05-07T09:10:54;27.93;46.94
67093;SHT31;54011;50.772;7.730;2023-05-07T09:13:22;27.98;47.14
67093;SHT31;54011;50.772;7.730;2023-05-07T09:15:48;26.87;49.12
67093;SHT31;54011;50.772;7.730;2023-05-07T09:18:15;27.25;47.99
67093;SHT31;54011;50.772;7.730;2023-05-07T09:20:41;27.76;48.07
67093;SHT31;54011;50.772;7.730;2023-05-07T09:23:08;27.67;47.26
67093;SHT31;54011;50.772;7.730;2023-05-07T09:25:36;27.20;47.39
67093;SHT31;54011;50.772;7.730;2023-05-07T09:28:08;26.67;49.57
67093;SHT31;54011;50.772;7.730;2023-05-07T09:30:35;27.35;47.04
67093;SHT31;54011;50.772;7.730;2023-05-07T09:33:03;27.42;48.01
67093;SHT31;54011;50.772;7.730;2023-05-07T09:35:31;27.91;46.94
67093;SHT31;54011;50.772;7.730;2023-05-07T09:38:03;27.67;46.64
67093;SHT31;54011;50.772;7.730;2023-05-07T09:40:30;27.71;46.71
67093;SHT31;54011;50.772;7.730;2023-05-07T09:43:10;27.80;45.92
67093;SHT31;54011;50.772;7.730;2023-05-07T09:45:39;27.53;46.74
67093;SHT31;54011;50.772;7.730;2023-05-07T09:48:06;26.71;47.67
67093;SHT31;54011;50.772;7.730;2023-05-07T09:50:36;27.80;47.20
67093;SHT31;54011;50.772;7.730;2023-05-07T09:53:03;27.12;48.42
67093;SHT31;54011;50.772;7.730;2023-05-07T09:55:30;26.96;48.60
67093;SHT31;54011;50.772;7.730;2023-05-07T09:57:57;27.53;47.39
67093;SHT31;54011;50.772;7.730;2023-05-07T10:00:27;27.53;47.77
67093;SHT31;54011;50.772;7.730;2023-05-07T10:03:02;28.09;46.63
67093;SHT31;54011;50.772;7.730;2023-05-07T10:05:38;28.19;45.66
67093;SHT31;54011;50.772;7.730;2023-05-07T10:08:05;28.99;44.19
67093;SHT31;54011;50.772;7.730;2023-05-07T10:10:35;28.69;44.30
67093;SHT31;54011;50.772;7.730;2023-05-07T10:13:02;27.94;46.60
67093;SHT31;54011;50.772;7.730;2023-05-07T10:15:32;28.38;44.54
67093;SHT31;54011;50.772;7.730;2023-05-07T10:18:05;27.70;46.09
67093;SHT31;54011;50.772;7.730;2023-05-07T10:20:33;28.87;45.28
67093;SHT31;54011;50.772;7.730;2023-05-07T10:23:03;28.90;44.18
67093;SHT31;54011;50.772;7.730;2023-05-07T10:25:40;28.18;45.37
67093;SHT31;54011;50.772;7.730;2023-05-07T10:28:15;28.07;45.82
67093;SHT31;54011;50.772;7.730;2023-05-07T10:33:31;28.72;44.94
67093;SHT31;54011;50.772;7.730;2023-05-07T10:36:01;29.43;44.80
67093;SHT31;54011;50.772;7.730;2023-05-07T10:38:30;29.07;44.00
67093;SHT31;54011;50.772;7.730;2023-05-07T10:40:58;28.77;44.45
67093;SHT31;54011;50.772;7.730;2023-05-07T10:43:24;28.19;46.00
67093;SHT31;54011;50.772;7.730;2023-05-07T10:46:16;28.46;45.73
67093;SHT31;54011;50.772;7.730;2023-05-07T10:51:30;28.70;43.91
67093;SHT31;54011;50.772;7.730;2023-05-07T10:56:43;27.63;44.95
67093;SHT31;54011;50.772;7.730;2023-05-07T11:01:56;27.57;45.79
67093;SHT31;54011;50.772;7.730;2023-05-07T11:04:30;28.28;43.50
67093;SHT31;54011;50.772;7.730;2023-05-07T11:07:29;28.95;44.76
67093;SHT31;54011;50.772;7.730;2023-05-07T11:10:07;28.86;43.41
67093;SHT31;54011;50.772;7.730;2023-05-07T11:15:34;28.28;44.56
67093;SHT31;54011;50.772;7.730;2023-05-07T11:18:02;28.76;43.46
67093;SHT31;54011;50.772;7.730;2023-05-07T11:20:56;28.73;43.77
67093;SHT31;54011;50.772;7.730;2023-05-07T11:26:16;28.19;44.63
67093;SHT31;54011;50.772;7.730;2023-05-07T11:28:43;28.14;43.98
67093;SHT31;54011;50.772;7.730;2023-05-07T11:31:10;27.70;44.92
67093;SHT31;54011;50.772;7.730;2023-05-07T11:33:37;28.19;43.58
67093;SHT31;54011;50.772;7.730;2023-05-07T11:36:07;27.67;44.57
67093;SHT31;54011;50.772;7.730;2023-05-07T11:38:37;27.60;44.50
67093;SHT31;54011;50.772;7.730;2023-05-07T11:41:09;27.98;44.82
67093;SHT31;54011;50.772;7.730;2023-05-07T11:43:34;27.42;45.08
67093;SHT31;54011;50.772;7.730;2023-05-07T11:46:09;27.66;45.13
67093;SHT31;54011;50.772;7.730;2023-05-07T11:48:36;27.15;45.89
67093;SHT31;54011;50.772;7.730;2023-05-07T11:51:04;27.32;45.09
67093;SHT31;54011;50.772;7.730;2023-05-07T11:53:39;27.32;45.23
67093;SHT31;54011;50.772;7.730;2023-05-07T11:56:13;27.32;45.37
67093;SHT31;54011;50.772;7.730;2023-05-07T11:58:39;27.29;45.38
67093;SHT31;54011;50.772;7.730;2023-05-07T12:01:07;27.18;45.75
67093;SHT31;54011;50.772;7.730;2023-05-07T12:03:36;27.20;45.23
67093;SHT31;54011;50.772;7.730;2023-05-07T12:06:05;27.35;44.85
67093;SHT31;54011;50.772;7.730;2023-05-07T12:08:30;27.23;45.24
67093;SHT31;54011;50.772;7.730;2023-05-07T12:10:56;26.92;46.03
67093;SHT31;54011;50.772;7.730;2023-05-07T12:13:24;27.13;45.48
67093;SHT31;54011;50.772;7.730;2023-05-07T12:15:54;26.82;45.99
67093;SHT31;54011;50.772;7.730;2023-05-07T12:18:21;26.74;46.31
67093;SHT31;54011;50.772;7.730;2023-05-07T12:20:47;26.79;46.34
67093;SHT31;54011;50.772;7.730;2023-05-07T12:23:13;26.94;46.56
67093;SHT31;54011;50.772;7.730;2023-05-07T12:25:40;26.57;46.92
67093;SHT31;54011;50.772;7.730;2023-05-07T12:28:18;26.36;47.11
67093;SHT31;54011;50.772;7.730;2023-05-07T12:30:45;26.36;47.64
67093;SHT31;54011;50.772;7.730;2023-05-07T12:33:12;26.01;46.42
67093;SHT31;54011;50.772;7.730;2023-05-07T12:35:42;26.30;46.27
67093;SHT31;54011;50.772;7.730;2023-05-07T12:38:14;26.29;46.22
67093;SHT31;54011;50.772;7.730;2023-05-07T12:40:47;26.30;46.61
67093;SHT31;54011;50.772;7.730;2023-05-07T12:43:20;26.13;46.49
67093;SHT31;54011;50.772;7.730;2023-05-07T12:45:49;25.86;47.60
67093;SHT31;54011;50.772;7.730;2023-05-07T12:48:16;26.03;47.36
67093;SHT31;54011;50.772;7.730;2023-05-07T12:50:42;25.46;49.00
67093;SHT31;54011;50.772;7.730;2023-05-07T12:53:11;25.88;48.43
67093;SHT31;54011;50.772;7.730;2023-05-07T12:55:51;25.49;49.30
67093;SHT31;54011;50.772;7.730;2023-05-07T12:58:20;25.86;48.95
67093;SHT31;54011;50.772;7.730;2023-05-07T13:00:50;25.97;48.96
67093;SHT31;54011;50.772;7.730;2023-05-07T13:03:20;25.59;49.74
67093;SHT31;54011;50.772;7.730;2023-05-07T13:05:46;25.83;50.71
67093;SHT31;54011;50.772;7.730;2023-05-07T13:08:23;26.54;49.17
67093;SHT31;54011;50.772;7.730;2023-05-07T13:10:49;26.81;48.83
67093;SHT31;54011;50.772;7.730;2023-05-07T13:13:15;26.77;49.04
67093;SHT31;54011;50.772;7.730;2023-05-07T13:15:40;26.84;48.10
67093;SHT31;54011;50.772;7.730;2023-05-07T13:18:06;26.43;48.85
67093;SHT31;54011;50.772;7.730;2023-05-07T13:20:32;26.78;48.76
67093;SHT31;54011;50.772;7.730;2023-05-07T13:22:57;26.48;49.03
67093;SHT31;54011;50.772;7.730;2023-05-07T13:25:26;26.38;49.13
67093;SHT31;54011;50.772;7.730;2023-05-07T13:27:51;26.64;48.59
67093;SHT31;54011;50.772;7.730;2023-05-07T13:30:17;26.95;47.83
67093;SHT31;54011;50.772;7.730;2023-05-07T13:32:43;27.49;47.27
67093;SHT31;54011;50.772;7.730;2023-05-07T13:35:09;27.28;47.09
67093;SHT31;54011;50.772;7.730;2023-05-07T13:37:34;26.74;48.44
67093;SHT31;54011;50.772;7.730;2023-05-07T13:40:00;27.93;46.53
67093;SHT31;54011;50.772;7.730;2023-05-07T13:42:25;27.93;46.70
67093;SHT31;54011;50.772;7.730;2023-05-07T13:44:51;27.70;46.95
67093;SHT31;54011;50.772;7.730;2023-05-07T13:47:16;27.00;48.41
67093;SHT31;54011;50.772;7.730;2023-05-07T13:49:42;28.12;46.90
67093;SHT31;54011;50.772;7.730;2023-05-07T13:52:07;27.56;47.48
67093;SHT31;54011;50.772;7.730;2023-05-07T13:54:33;28.96;46.16
67093;SHT31;54011;50.772;7.730;2023-05-07T13:56:59;28.42;47.11
67093;SHT31;54011;50.772;7.730;2023-05-07T13:59:24;27.86;48.57
67093;SHT31;54011;50.772;7.730;2023-05-07T14:01:50;28.99;44.90
67093;SHT31;54011;50.772;7.730;2023-05-07T14:04:15;30.17;43.47
67093;SHT31;54011;50.772;7.730;2023-05-07T14:06:42;30.84;42.37
67093;SHT31;54011;50.772;7.730;2023-05-07T14:09:08;31.18;42.40
67093;SHT31;54011;50.772;7.730;2023-05-07T14:11:37;31.83;41.61
67093;SHT31;54011;50.772;7.730;2023-05-07T14:14:02;32.86;39.49
67093;SHT31;54011;50.772;7.730;2023-05-07T14:16:28;32.12;41.32
67093;SHT31;54011;50.772;7.730;2023-05-07T14:18:54;30.92;42.70
67093;SHT31;54011;50.772;7.730;2023-05-07T14:21:19;30.74;43.77
67093;SHT31;54011;50.772;7.730;2023-05-07T14:23:45;31.66;41.54
67093;SHT31;54011;50.772;7.730;2023-05-07T14:26:12;31.58;42.08
67093;SHT31;54011;50.772;7.730;2023-05-07T14:28:37;30.46;42.47
67093;SHT31;54011;50.772;7.730;2023-05-07T14:31:05;30.73;42.14
67093;SHT31;54011;50.772;7.730;2023-05-07T14:33:31;30.05;42.72
67093;SHT31;54011;50.772;7.730;2023-05-07T14:35:57;29.08;44.57
67093;SHT31;54011;50.772;7.730;2023-05-07T14:38:23;29.50;43.93
67093;SHT31;54011;50.772;7.730;2023-05-07T14:40:49;28.32;46.30
67093;SHT31;54011;50.772;7.730;2023-05-07T14:43:15;29.06;44.56
67093;SHT31;54011;50.772;7.730;2023-05-07T14:45:40;29.57;44.46
67093;SHT31;54011;50.772;7.730;2023-05-07T14:48:06;28.29;45.16
67093;SHT31;54011;50.772;7.730;2023-05-07T14:50:31;28.65;46.02
67093;SHT31;54011;50.772;7.730;2023-05-07T14:52:57;27.59;47.29
67093;SHT31;54011;50.772;7.730;2023-05-07T14:55:23;27.32;46.97
67093;SHT31;54011;50.772;7.730;2023-05-07T14:57:48;26.54;48.37
67093;SHT31;54011;50.772;7.730;2023-05-07T15:00:14;27.10;47.58
67093;SHT31;54011;50.772;7.730;2023-05-07T15:02:41;26.47;48.67
67093;SHT31;54011;50.772;7.730;2023-05-07T15:05:06;26.52;48.44
67093;SHT31;54011;50.772;7.730;2023-05-07T15:07:32;26.51;47.95
67093;SHT31;54011;50.772;7.730;2023-05-07T15:09:59;26.03;49.12
67093;SHT31;54011;50.772;7.730;2023-05-07T15:12:25;26.09;49.74
67093;SHT31;54011;50.772;7.730;2023-05-07T15:14:50;25.39;51.74
67093;SHT31;54011;50.772;7.730;2023-05-07T15:17:16;25.92;50.37
67093;SHT31;54011;50.772;7.730;2023-05-07T15:19:42;25.45;51.38
67093;SHT31;54011;50.772;7.730;2023-05-07T15:22:07;25.25;51.92
67093;SHT31;54011;50.772;7.730;2023-05-07T15:24:33;24.53;54.15
67093;SHT31;54011;50.772;7.730;2023-05-07T15:26:59;25.07;53.29
67093;SHT31;54011;50.772;7.730;2023-05-07T15:29:26;25.28;53.35
67093;SHT31;54011;50.772;7.730;2023-05-07T15:31:51;25.63;52.70
67093;SHT31;54011;50.772;7.730;2023-05-07T15:34:17;25.80;53.00
67093;SHT31;54011;50.772;7.730;2023-05-07T15:36:43;25.76;53.65
67093;SHT31;54011;50.772;7.730;2023-05-07T15:39:08;25.57;54.35
67093;SHT31;54011;50.772;7.730;2023-05-07T15:41:36;25.38;55.40
67093;SHT31;54011;50.772;7.730;2023-05-07T15:44:02;25.21;55.37
67093;SHT31;54011;50.772;7.730;2023-05-07T15:46:28;25.01;56.07
67093;SHT31;54011;50.772;7.730;2023-05-07T15:48:53;24.48;57.89